createdAt,value
2018-02-24T00:00:39.472Z,2.83
2018-02-24T00:01:39.476Z,2.87
2018-02-24T00:02:38.925Z,2.75
2018-02-24T00:03:39.214Z,2.86
2018-02-24T00:04:39.507Z,2.8
2018-02-24T00:05:39.577Z,2.82
2018-02-24T00:06:39.240Z,2.82
2018-02-24T00:07:39.526Z,2.77
2018-02-24T00:08:39.252Z,2.79
2018-02-24T00:09:39.541Z,2.75
2018-02-24T00:10:39.623Z,2.79
2018-02-24T00:11:39.563Z,2.82
2018-02-24T00:12:39.578Z,2.79
2018-02-24T00:13:39.293Z,2.74
2018-02-24T00:14:39.838Z,2.82
2018-02-24T00:15:39.361Z,2.8
2018-02-24T00:16:39.610Z,2.75
2018-02-24T00:17:39.335Z,2.8
2018-02-24T00:18:39.332Z,2.75
2018-02-24T00:19:39.630Z,2.71
2018-02-24T00:20:39.743Z,2.75
2018-02-24T00:21:39.364Z,2.77
2018-02-24T00:22:39.369Z,2.77
2018-02-24T00:23:39.379Z,2.75
2018-02-24T00:24:39.386Z,2.77
2018-02-24T00:25:39.406Z,2.77
2018-02-24T00:26:39.681Z,2.72
2018-02-24T00:27:39.411Z,2.77
2018-02-24T00:28:39.702Z,2.72
2018-02-24T00:29:39.422Z,2.72
2018-02-24T00:30:39.435Z,2.71
2018-02-24T00:31:39.737Z,2.75
2018-02-24T00:32:39.747Z,2.69
2018-02-24T00:33:39.174Z,2.69
2018-02-24T00:34:39.466Z,2.6
2018-02-24T00:35:39.856Z,2.67
2018-02-24T00:36:39.765Z,2.67
2018-02-24T00:37:39.774Z,2.71
2018-02-24T00:38:39.787Z,2.68
2018-02-24T00:39:39.513Z,2.68
2018-02-24T00:40:39.517Z,2.64
2018-02-24T00:41:39.527Z,2.64
2018-02-24T00:42:39.536Z,2.67
2018-02-24T00:43:39.821Z,2.64
2018-02-24T00:44:39.266Z,2.64
2018-02-24T00:45:39.843Z,2.69
2018-02-24T00:46:39.569Z,2.64
2018-02-24T00:47:39.572Z,2.69
2018-02-24T00:48:39.586Z,2.71
2018-02-24T00:49:39.592Z,2.69
2018-02-24T00:50:39.365Z,2.68
2018-02-24T00:51:39.607Z,2.67
2018-02-24T00:52:39.898Z,2.61
2018-02-24T00:53:39.905Z,2.64
2018-02-24T00:54:39.914Z,2.68
2018-02-24T00:55:39.915Z,2.64
2018-02-24T00:56:39.644Z,2.69
2018-02-24T00:57:39.654Z,2.67
2018-02-24T00:58:39.993Z,2.62
2018-02-24T00:59:39.673Z,2.68
2018-02-24T01:00:39.688Z,2.61
2018-02-24T01:01:39.690Z,2.67
2018-02-24T01:02:39.694Z,2.67
2018-02-24T01:03:39.992Z,2.57
2018-02-24T01:04:39.994Z,2.67
2018-02-24T01:05:40.082Z,2.62
2018-02-24T01:06:40.008Z,2.72
2018-02-24T01:07:39.732Z,2.62
2018-02-24T01:08:39.744Z,2.62
2018-02-24T01:09:40.037Z,2.56
2018-02-24T01:10:40.044Z,2.6
2018-02-24T01:11:40.056Z,2.56
2018-02-24T01:12:40.059Z,2.57
2018-02-24T01:13:39.783Z,2.56
2018-02-24T01:14:39.512Z,2.51
2018-02-24T01:15:39.519Z,2.57
2018-02-24T01:16:39.809Z,2.56
2018-02-24T01:17:39.813Z,2.62
2018-02-24T01:18:39.549Z,2.54
2018-02-24T01:19:39.835Z,2.5
2018-02-24T01:20:39.847Z,2.54
2018-02-24T01:21:39.852Z,2.5
2018-02-24T01:22:40.146Z,2.57
2018-02-24T01:23:39.584Z,2.53
2018-02-24T01:24:39.871Z,2.53
2018-02-24T01:25:39.882Z,2.53
2018-02-24T01:26:40.179Z,2.6
2018-02-24T01:27:39.611Z,2.56
2018-02-24T01:28:40.188Z,2.47
2018-02-24T01:29:39.920Z,2.5
2018-02-24T01:30:39.639Z,2.57
2018-02-24T01:31:39.930Z,2.53
2018-02-24T01:32:39.656Z,2.56
2018-02-24T01:33:39.946Z,2.56
2018-02-24T01:34:39.963Z,2.44
2018-02-24T01:35:39.960Z,2.54
2018-02-24T01:36:39.971Z,2.51
2018-02-24T01:37:39.979Z,2.5
2018-02-24T01:38:39.988Z,2.5
2018-02-24T01:39:40.276Z,2.47
2018-02-24T01:40:39.999Z,2.46
2018-02-24T01:41:40.293Z,2.49
2018-02-24T01:42:40.297Z,2.5
2018-02-24T01:43:39.749Z,2.43
2018-02-24T01:44:39.750Z,2.51
2018-02-24T01:45:40.325Z,2.47
2018-02-24T01:46:40.049Z,2.46
2018-02-24T01:47:40.054Z,2.56
2018-02-24T01:48:39.784Z,2.5
2018-02-24T01:49:39.791Z,2.47
2018-02-24T01:50:40.085Z,2.46
2018-02-24T01:51:40.090Z,2.46
2018-02-24T01:52:40.377Z,2.47
2018-02-24T01:53:40.106Z,2.47
2018-02-24T01:54:40.398Z,2.49
2018-02-24T01:55:40.126Z,2.44
2018-02-24T01:56:40.132Z,2.5
2018-02-24T01:57:40.425Z,2.46
2018-02-24T01:58:40.147Z,2.5
2018-02-24T01:59:40.156Z,2.44
2018-02-24T02:00:40.166Z,2.35
2018-02-24T02:01:40.170Z,2.46
2018-02-24T02:02:40.177Z,2.44
2018-02-24T02:03:40.470Z,2.42
2018-02-24T02:04:40.196Z,2.36
2018-02-24T02:05:40.489Z,2.44
2018-02-24T02:06:40.214Z,2.39
2018-02-24T02:07:40.226Z,2.36
2018-02-24T02:08:40.510Z,2.32
2018-02-24T02:09:40.240Z,2.33
2018-02-24T02:10:40.529Z,2.42
2018-02-24T02:11:40.249Z,2.42
2018-02-24T02:12:40.263Z,2.35
2018-02-24T02:13:40.265Z,2.36
2018-02-24T02:14:40.272Z,2.38
2018-02-24T02:15:40.280Z,2.36
2018-02-24T02:16:40.578Z,2.44
2018-02-24T02:17:40.299Z,2.38
2018-02-24T02:18:40.304Z,2.36
2018-02-24T02:19:40.599Z,2.42
2018-02-24T02:20:40.602Z,2.35
2018-02-24T02:21:40.329Z,2.33
2018-02-24T02:22:40.629Z,2.32
2018-02-24T02:23:40.351Z,2.32
2018-02-24T02:24:40.354Z,2.32
2018-02-24T02:25:40.650Z,2.31
2018-02-24T02:26:40.653Z,2.29
2018-02-24T02:27:40.377Z,2.33
2018-02-24T02:28:40.667Z,2.36
2018-02-24T02:29:40.112Z,2.36
2018-02-24T02:30:40.412Z,2.36
2018-02-24T02:31:40.697Z,2.31
2018-02-24T02:32:40.707Z,2.31
2018-02-24T02:33:40.708Z,2.33
2018-02-24T02:34:40.712Z,2.29
2018-02-24T02:35:40.160Z,2.28
2018-02-24T02:36:40.450Z,2.26
2018-02-24T02:37:40.457Z,2.29
2018-02-24T02:38:40.751Z,2.24
2018-02-24T02:39:40.757Z,2.26
2018-02-24T02:40:40.486Z,2.25
2018-02-24T02:41:40.775Z,2.26
2018-02-24T02:42:40.497Z,2.26
2018-02-24T02:43:40.795Z,2.25
2018-02-24T02:44:40.799Z,2.25
2018-02-24T02:45:40.525Z,2.26
2018-02-24T02:46:40.530Z,2.28
2018-02-24T02:47:40.256Z,2.2
2018-02-24T02:48:40.831Z,2.15
2018-02-24T02:49:40.832Z,2.22
2018-02-24T02:50:40.841Z,2.22
2018-02-24T02:51:40.861Z,2.2
2018-02-24T02:52:40.301Z,2.33
2018-02-24T02:53:40.596Z,2.35
2018-02-24T02:54:40.598Z,2.15
2018-02-24T02:55:40.602Z,2.22
2018-02-24T02:56:40.327Z,2.14
2018-02-24T02:57:40.332Z,2.18
2018-02-24T02:58:40.920Z,2.18
2018-02-24T02:59:40.632Z,2.2
2018-02-24T03:00:40.923Z,2.35
2018-02-24T03:01:40.931Z,2.17
2018-02-24T03:02:40.656Z,2.17
2018-02-24T03:03:40.449Z,2.28
2018-02-24T03:04:40.963Z,2.29
2018-02-24T03:05:40.962Z,2.25
2018-02-24T03:06:40.689Z,2.29
2018-02-24T03:07:40.990Z,2.25
2018-02-24T03:08:40.700Z,2.24
2018-02-24T03:09:40.715Z,2.25
2018-02-24T03:10:41.000Z,2.2
2018-02-24T03:11:40.452Z,2.2
2018-02-24T03:12:40.734Z,2.25
2018-02-24T03:13:40.462Z,2.25
2018-02-24T03:14:40.465Z,2.24
2018-02-24T03:15:41.042Z,2.22
2018-02-24T03:16:41.047Z,2.29
2018-02-24T03:17:40.776Z,2.25
2018-02-24T03:18:41.060Z,2.26
2018-02-24T03:19:40.511Z,2.15
2018-02-24T03:20:41.079Z,2.25
2018-02-24T03:21:41.081Z,2.22
2018-02-24T03:22:41.096Z,2.18
2018-02-24T03:23:40.814Z,2.15
2018-02-24T03:24:41.108Z,2.18
2018-02-24T03:25:40.831Z,2.17
2018-02-24T03:26:41.121Z,2.22
2018-02-24T03:27:40.565Z,2.22
2018-02-24T03:28:41.135Z,2.18
2018-02-24T03:29:40.860Z,2.18
2018-02-24T03:30:40.593Z,2.2
2018-02-24T03:31:41.224Z,2.14
2018-02-24T03:32:40.887Z,2.2
2018-02-24T03:33:41.183Z,2.2
2018-02-24T03:34:40.911Z,2.18
2018-02-24T03:35:41.195Z,2.24
2018-02-24T03:36:40.969Z,2.22
2018-02-24T03:37:40.641Z,2.15
2018-02-24T03:38:40.942Z,2.22
2018-02-24T03:39:40.940Z,2.22
2018-02-24T03:40:41.237Z,2.24
2018-02-24T03:41:40.682Z,2.22
2018-02-24T03:42:40.966Z,2.25
2018-02-24T03:43:40.692Z,2.17
2018-02-24T03:44:40.979Z,2.15
2018-02-24T03:45:40.990Z,2.15
2018-02-24T03:46:41.275Z,2.15
2018-02-24T03:47:41.004Z,2.22
2018-02-24T03:48:41.300Z,2.15
2018-02-24T03:49:41.027Z,2.24
2018-02-24T03:50:41.030Z,2.18
2018-02-24T03:51:41.317Z,2.14
2018-02-24T03:52:41.042Z,2.14
2018-02-24T03:53:41.332Z,2.18
2018-02-24T03:54:41.340Z,2.17
2018-02-24T03:55:41.069Z,2.18
2018-02-24T03:56:41.075Z,2.18
2018-02-24T03:57:41.083Z,2.15
2018-02-24T03:58:41.378Z,2.17
2018-02-24T03:59:41.101Z,2.22
2018-02-24T04:00:41.397Z,2.15
2018-02-24T04:01:41.148Z,2.13
2018-02-24T04:02:40.836Z,2.15
2018-02-24T04:03:41.136Z,2.15
2018-02-24T04:04:41.130Z,2.13
2018-02-24T04:05:41.148Z,2.17
2018-02-24T04:06:41.445Z,2.15
2018-02-24T04:07:41.448Z,2.15
2018-02-24T04:08:41.172Z,2.17
2018-02-24T04:09:41.455Z,2.15
2018-02-24T04:10:41.181Z,2.15
2018-02-24T04:11:41.198Z,2.18
2018-02-24T04:12:41.480Z,2.18
2018-02-24T04:13:41.206Z,2.15
2018-02-24T04:14:41.497Z,2.15
2018-02-24T04:15:41.236Z,2.11
2018-02-24T04:16:41.231Z,2.17
2018-02-24T04:17:41.239Z,2.18
2018-02-24T04:18:41.245Z,2.1
2018-02-24T04:19:41.535Z,2.1
2018-02-24T04:20:41.545Z,2.15
2018-02-24T04:21:41.560Z,2.13
2018-02-24T04:22:41.274Z,2.1
2018-02-24T04:23:40.997Z,2.15
2018-02-24T04:24:41.572Z,2.07
2018-02-24T04:25:41.306Z,2
2018-02-24T04:26:41.305Z,2.11
2018-02-24T04:27:41.312Z,2.08
2018-02-24T04:28:41.321Z,2.07
2018-02-24T04:29:41.324Z,2.08
2018-02-24T04:30:41.619Z,2.14
2018-02-24T04:31:41.339Z,2.07
2018-02-24T04:32:41.635Z,1.99
2018-02-24T04:33:41.362Z,2.08
2018-02-24T04:34:41.365Z,2.08
2018-02-24T04:35:41.373Z,2.11
2018-02-24T04:36:41.667Z,2.07
2018-02-24T04:37:41.394Z,2.04
2018-02-24T04:38:41.394Z,2
2018-02-24T04:39:41.695Z,2
2018-02-24T04:40:41.696Z,2.02
2018-02-24T04:41:41.134Z,2.06
2018-02-24T04:42:41.430Z,1.94
2018-02-24T04:43:41.715Z,2.07
2018-02-24T04:44:41.443Z,1.99
2018-02-24T04:45:41.776Z,2.04
2018-02-24T04:46:41.174Z,1.99
2018-02-24T04:47:41.466Z,2.02
2018-02-24T04:48:41.755Z,2.06
2018-02-24T04:49:41.484Z,2.07
2018-02-24T04:50:41.490Z,2.02
2018-02-24T04:51:41.495Z,1.94
2018-02-24T04:52:41.514Z,2.08
2018-02-24T04:53:41.796Z,2.02
2018-02-24T04:54:41.522Z,1.97
2018-02-24T04:55:41.807Z,1.97
2018-02-24T04:56:41.531Z,2.04
2018-02-24T04:57:41.542Z,2.02
2018-02-24T04:58:41.267Z,2.06
2018-02-24T04:59:41.273Z,1.95
2018-02-24T05:00:41.847Z,2.06
2018-02-24T05:01:41.576Z,2.06
2018-02-24T05:02:41.863Z,2.06
2018-02-24T05:03:41.588Z,2
2018-02-24T05:04:41.326Z,1.94
2018-02-24T05:05:41.905Z,2.07
2018-02-24T05:06:41.333Z,2.02
2018-02-24T05:07:41.621Z,2.02
2018-02-24T05:08:41.628Z,2.04
2018-02-24T05:09:41.351Z,2.06
2018-02-24T05:10:41.647Z,2.07
2018-02-24T05:11:41.652Z,2.02
2018-02-24T05:12:41.658Z,2.02
2018-02-24T05:13:41.943Z,2.11
2018-02-24T05:14:41.957Z,2.07
2018-02-24T05:15:41.682Z,1.94
2018-02-24T05:16:41.971Z,2.06
2018-02-24T05:17:42.025Z,2.06
2018-02-24T05:18:41.702Z,1.99
2018-02-24T05:19:41.427Z,2.04
2018-02-24T05:20:41.714Z,2.04
2018-02-24T05:21:42.007Z,1.95
2018-02-24T05:22:42.024Z,2.07
2018-02-24T05:23:41.738Z,2.11
2018-02-24T05:24:42.027Z,2.06
2018-02-24T05:25:42.049Z,2
2018-02-24T05:26:41.764Z,1.99
2018-02-24T05:27:42.102Z,2
2018-02-24T05:28:41.777Z,2.02
2018-02-24T05:29:42.065Z,2
2018-02-24T05:30:42.085Z,1.94
2018-02-24T05:31:42.141Z,2.07
2018-02-24T05:32:42.089Z,1.99
2018-02-24T05:33:41.819Z,2.07
2018-02-24T05:34:42.110Z,2.08
2018-02-24T05:35:42.114Z,2.06
2018-02-24T05:36:42.122Z,1.91
2018-02-24T05:37:41.845Z,1.94
2018-02-24T05:38:42.143Z,1.99
2018-02-24T05:39:41.873Z,2.07
2018-02-24T05:40:41.870Z,2.02
2018-02-24T05:41:41.592Z,2.06
2018-02-24T05:42:42.216Z,1.95
2018-02-24T05:43:41.894Z,1.91
2018-02-24T05:44:41.905Z,1.92
2018-02-24T05:45:41.906Z,1.99
2018-02-24T05:46:41.915Z,2.06
2018-02-24T05:47:41.975Z,1.95
2018-02-24T05:48:42.227Z,1.99
2018-02-24T05:49:42.220Z,1.92
2018-02-24T05:50:42.225Z,1.91
2018-02-24T05:51:41.956Z,1.99
2018-02-24T05:52:42.241Z,1.97
2018-02-24T05:53:41.986Z,1.97
2018-02-24T05:54:41.975Z,2
2018-02-24T05:55:41.987Z,1.99
2018-02-24T05:56:42.279Z,1.95
2018-02-24T05:57:42.353Z,1.95
2018-02-24T05:58:42.286Z,1.95
2018-02-24T05:59:42.010Z,1.95
2018-02-24T06:00:42.301Z,2.02
2018-02-24T06:01:42.311Z,2
2018-02-24T06:02:42.312Z,1.97
2018-02-24T06:03:42.047Z,1.97
2018-02-24T06:04:42.055Z,1.97
2018-02-24T06:05:42.055Z,1.95
2018-02-24T06:06:42.071Z,1.92
2018-02-24T06:07:42.139Z,1.92
2018-02-24T06:08:42.077Z,1.97
2018-02-24T06:09:42.085Z,1.94
2018-02-24T06:10:42.377Z,1.97
2018-02-24T06:11:42.379Z,1.97
2018-02-24T06:12:42.112Z,1.97
2018-02-24T06:13:42.118Z,1.95
2018-02-24T06:14:42.407Z,1.97
2018-02-24T06:15:42.419Z,1.97
2018-02-24T06:16:42.142Z,1.95
2018-02-24T06:17:42.482Z,1.97
2018-02-24T06:18:42.440Z,1.94
2018-02-24T06:19:42.007Z,1.91
2018-02-24T06:20:42.450Z,1.91
2018-02-24T06:21:42.465Z,1.92
2018-02-24T06:22:42.191Z,1.99
2018-02-24T06:23:42.481Z,1.94
2018-02-24T06:24:42.490Z,1.97
2018-02-24T06:25:42.490Z,1.97
2018-02-24T06:26:42.500Z,1.95
2018-02-24T06:27:41.941Z,2.06
2018-02-24T06:28:42.519Z,1.97
2018-02-24T06:29:42.525Z,2.06
2018-02-24T06:30:42.534Z,1.97
2018-02-24T06:31:42.534Z,1.95
2018-02-24T06:32:42.265Z,1.99
2018-02-24T06:33:42.550Z,2.02
2018-02-24T06:34:42.276Z,1.99
2018-02-24T06:35:42.283Z,2.07
2018-02-24T06:36:42.299Z,1.99
2018-02-24T06:37:42.575Z,2.04
2018-02-24T06:38:42.591Z,2.02
2018-02-24T06:39:42.313Z,2.06
2018-02-24T06:40:42.338Z,2.07
2018-02-24T06:41:42.615Z,2.08
2018-02-24T06:42:42.680Z,2.11
2018-02-24T06:43:42.363Z,2.15
2018-02-24T06:44:42.090Z,2.11
2018-02-24T06:45:42.644Z,2.18
2018-02-24T06:46:42.688Z,2.13
2018-02-24T06:47:42.377Z,2.07
2018-02-24T06:48:42.722Z,2.15
2018-02-24T06:49:42.114Z,2.14
2018-02-24T06:50:42.403Z,2.14
2018-02-24T06:51:42.430Z,2.15
2018-02-24T06:52:42.413Z,2.22
2018-02-24T06:53:42.702Z,2.13
2018-02-24T06:54:42.833Z,2.24
2018-02-24T06:55:42.439Z,2.15
2018-02-24T06:56:42.440Z,2.22
2018-02-24T06:57:42.216Z,2.22
2018-02-24T06:58:42.457Z,2.28
2018-02-24T06:59:42.468Z,2.33
2018-02-24T07:00:42.473Z,2.25
2018-02-24T07:01:42.480Z,2.15
2018-02-24T07:02:42.833Z,2.28
2018-02-24T07:03:42.784Z,2.31
2018-02-24T07:04:42.790Z,2.28
2018-02-24T07:05:42.525Z,2.28
2018-02-24T07:06:42.810Z,2.26
2018-02-24T07:07:42.837Z,2.33
2018-02-24T07:08:42.825Z,2.39
2018-02-24T07:09:42.824Z,2.33
2018-02-24T07:10:42.586Z,2.38
2018-02-24T07:11:42.835Z,2.42
2018-02-24T07:12:42.584Z,2.49
2018-02-24T07:13:42.571Z,2.44
2018-02-24T07:14:42.584Z,2.44
2018-02-24T07:15:42.875Z,2.47
2018-02-24T07:16:42.592Z,2.47
2018-02-24T07:17:42.605Z,2.51
2018-02-24T07:18:42.887Z,2.57
2018-02-24T07:19:42.621Z,2.53
2018-02-24T07:20:42.630Z,2.56
2018-02-24T07:21:42.917Z,2.61
2018-02-24T07:22:42.920Z,2.6
2018-02-24T07:23:42.928Z,2.57
2018-02-24T07:24:42.657Z,2.6
2018-02-24T07:25:42.665Z,2.64
2018-02-24T07:26:42.967Z,2.61
2018-02-24T07:27:42.986Z,2.61
2018-02-24T07:28:42.981Z,2.72
2018-02-24T07:29:42.695Z,2.71
2018-02-24T07:30:42.706Z,2.71
2018-02-24T07:31:43.009Z,2.72
2018-02-24T07:32:43.008Z,2.65
2018-02-24T07:33:42.731Z,2.74
2018-02-24T07:34:43.110Z,2.75
2018-02-24T07:35:42.740Z,2.75
2018-02-24T07:36:42.750Z,2.79
2018-02-24T07:37:42.757Z,2.8
2018-02-24T07:38:43.046Z,2.87
2018-02-24T07:39:43.061Z,2.89
2018-02-24T07:40:42.781Z,2.83
2018-02-24T07:41:43.072Z,2.87
2018-02-24T07:42:42.799Z,2.9
2018-02-24T07:43:43.093Z,2.85
2018-02-24T07:44:42.532Z,2.93
2018-02-24T07:45:42.816Z,2.9
2018-02-24T07:46:42.829Z,2.89
2018-02-24T07:47:42.834Z,2.89
2018-02-24T07:48:43.127Z,2.97
2018-02-24T07:49:42.875Z,2.98
2018-02-24T07:50:42.861Z,3.03
2018-02-24T07:51:43.161Z,3.01
2018-02-24T07:52:43.193Z,3.03
2018-02-24T07:53:42.884Z,3.07
2018-02-24T07:54:42.896Z,3.03
2018-02-24T07:55:43.190Z,3.11
2018-02-24T07:56:43.195Z,3.14
2018-02-24T07:57:43.208Z,3.07
2018-02-24T07:58:42.932Z,3.1
2018-02-24T07:59:42.942Z,3.11
2018-02-24T08:00:42.937Z,3.08
2018-02-24T08:01:42.667Z,3.28
2018-02-24T08:02:42.674Z,3.22
2018-02-24T08:03:42.967Z,3.21
2018-02-24T08:04:43.277Z,3.21
2018-02-24T08:05:43.271Z,3.25
2018-02-24T08:06:43.271Z,3.23
2018-02-24T08:07:43.278Z,3.29
2018-02-24T08:08:43.007Z,3.28
2018-02-24T08:09:43.027Z,3.28
2018-02-24T08:10:43.303Z,3.32
2018-02-24T08:11:43.031Z,3.26
2018-02-24T08:12:43.324Z,3.34
2018-02-24T08:13:43.047Z,3.31
2018-02-24T08:14:43.124Z,3.25
2018-02-24T08:15:43.344Z,3.4
2018-02-24T08:16:43.359Z,3.4
2018-02-24T08:17:43.371Z,3.41
2018-02-24T08:18:43.371Z,3.37
2018-02-24T08:19:43.397Z,3.51
2018-02-24T08:20:43.399Z,3.44
2018-02-24T08:21:43.121Z,3.48
2018-02-24T08:22:43.122Z,3.44
2018-02-24T08:23:43.137Z,3.51
2018-02-24T08:24:43.155Z,3.62
2018-02-24T08:25:42.861Z,3.66
2018-02-24T08:26:43.162Z,3.62
2018-02-24T08:27:43.454Z,3.62
2018-02-24T08:28:43.170Z,3.66
2018-02-24T08:29:43.465Z,3.69
2018-02-24T08:30:43.470Z,3.65
2018-02-24T08:31:43.481Z,3.69
2018-02-24T08:32:43.205Z,3.77
2018-02-24T08:33:43.493Z,3.76
2018-02-24T08:34:43.222Z,3.83
2018-02-24T08:35:43.230Z,3.77
2018-02-24T08:36:43.236Z,3.74
2018-02-24T08:37:43.249Z,3.86
2018-02-24T08:38:43.543Z,3.8
2018-02-24T08:39:43.542Z,3.83
2018-02-24T08:40:43.553Z,3.87
2018-02-24T08:41:43.275Z,3.88
2018-02-24T08:42:43.572Z,3.91
2018-02-24T08:43:43.584Z,3.99
2018-02-24T08:44:43.593Z,3.99
2018-02-24T08:45:43.352Z,4.04
2018-02-24T08:46:43.320Z,3.98
2018-02-24T08:47:43.623Z,3.96
2018-02-24T08:48:43.359Z,4.1
2018-02-24T08:49:43.350Z,4.12
2018-02-24T08:50:43.355Z,4.08
2018-02-24T08:51:43.364Z,4.14
2018-02-24T08:52:43.436Z,4.26
2018-02-24T08:53:43.099Z,4.2
2018-02-24T08:54:43.675Z,4.16
2018-02-24T08:55:43.680Z,4.16
2018-02-24T08:56:43.692Z,4.22
2018-02-24T08:57:43.705Z,4.19
2018-02-24T08:58:43.712Z,4.35
2018-02-24T08:59:43.435Z,4.26
2018-02-24T09:00:43.157Z,4.3
2018-02-24T09:01:43.453Z,4.41
2018-02-24T09:02:43.744Z,4.3
2018-02-24T09:03:43.749Z,4.37
2018-02-24T09:04:43.479Z,4.38
2018-02-24T09:05:43.485Z,4.35
2018-02-24T09:06:43.780Z,4.42
2018-02-24T09:07:43.796Z,4.45
2018-02-24T09:08:43.517Z,4.49
2018-02-24T09:09:43.807Z,4.45
2018-02-24T09:10:43.816Z,4.45
2018-02-24T09:11:43.551Z,4.48
2018-02-24T09:12:43.551Z,4.45
2018-02-24T09:13:43.840Z,4.5
2018-02-24T09:14:43.285Z,4.56
2018-02-24T09:15:43.858Z,4.56
2018-02-24T09:16:43.581Z,4.53
2018-02-24T09:17:43.961Z,4.6
2018-02-24T09:18:43.604Z,4.58
2018-02-24T09:19:43.618Z,4.59
2018-02-24T09:20:43.900Z,4.6
2018-02-24T09:21:43.629Z,4.59
2018-02-24T09:22:43.638Z,4.56
2018-02-24T09:23:43.654Z,4.68
2018-02-24T09:24:43.654Z,4.59
2018-02-24T09:25:43.957Z,4.73
2018-02-24T09:26:43.671Z,4.56
2018-02-24T09:27:43.968Z,4.66
2018-02-24T09:28:43.708Z,4.73
2018-02-24T09:29:43.989Z,4.73
2018-02-24T09:30:43.996Z,4.73
2018-02-24T09:31:43.724Z,4.87
2018-02-24T09:32:44.017Z,4.77
2018-02-24T09:33:43.752Z,4.89
2018-02-24T09:34:43.753Z,4.82
2018-02-24T09:35:43.756Z,4.78
2018-02-24T09:36:43.770Z,4.89
2018-02-24T09:37:44.066Z,4.89
2018-02-24T09:38:43.859Z,4.93
2018-02-24T09:39:44.075Z,4.99
2018-02-24T09:40:44.089Z,5.04
2018-02-24T09:41:43.815Z,5.04
2018-02-24T09:42:43.984Z,5.05
2018-02-24T09:43:43.838Z,5.08
2018-02-24T09:44:43.846Z,5.08
2018-02-24T09:45:43.873Z,5.14
2018-02-24T09:46:43.579Z,5.07
2018-02-24T09:47:43.876Z,5.08
2018-02-24T09:48:43.877Z,5.12
2018-02-24T09:49:43.604Z,5.18
2018-02-24T09:50:43.905Z,5.23
2018-02-24T09:51:44.238Z,5.21
2018-02-24T09:52:43.949Z,5.25
2018-02-24T09:53:43.721Z,5.18
2018-02-24T09:54:43.933Z,5.23
2018-02-24T09:55:43.946Z,5.29
2018-02-24T09:56:44.255Z,5.35
2018-02-24T09:57:43.676Z,5.28
2018-02-24T09:58:44.369Z,5.43
2018-02-24T09:59:44.002Z,5.44
2018-02-24T10:00:43.997Z,5.46
2018-02-24T10:01:43.999Z,5.54
2018-02-24T10:02:44.007Z,5.68
2018-02-24T10:03:44.300Z,5.69
2018-02-24T10:04:44.319Z,5.73
2018-02-24T10:05:44.322Z,5.87
2018-02-24T10:06:43.764Z,5.9
2018-02-24T10:07:44.055Z,5.87
2018-02-24T10:08:44.423Z,6.02
2018-02-24T10:09:44.360Z,6.05
2018-02-24T10:10:44.089Z,6.22
2018-02-24T10:11:44.151Z,6.2
2018-02-24T10:12:44.110Z,6.19
2018-02-24T10:13:44.457Z,6.2
2018-02-24T10:14:43.843Z,6.31
2018-02-24T10:15:43.851Z,6.31
2018-02-24T10:16:44.427Z,6.46
2018-02-24T10:17:44.158Z,6.46
2018-02-24T10:18:44.502Z,6.52
2018-02-24T10:19:43.891Z,6.54
2018-02-24T10:20:44.184Z,6.54
2018-02-24T10:21:44.512Z,6.56
2018-02-24T10:22:44.492Z,6.48
2018-02-24T10:23:44.503Z,6.52
2018-02-24T10:24:44.511Z,6.69
2018-02-24T10:25:44.515Z,6.67
2018-02-24T10:26:44.247Z,6.77
2018-02-24T10:27:44.256Z,6.69
2018-02-24T10:28:44.550Z,6.62
2018-02-24T10:29:44.281Z,6.62
2018-02-24T10:30:44.567Z,6.69
2018-02-24T10:31:44.585Z,6.64
2018-02-24T10:32:44.302Z,6.62
2018-02-24T10:33:44.598Z,6.64
2018-02-24T10:34:44.328Z,6.6
2018-02-24T10:35:44.615Z,6.52
2018-02-24T10:36:44.346Z,6.64
2018-02-24T10:37:44.360Z,6.6
2018-02-24T10:38:44.368Z,6.57
2018-02-24T10:39:44.377Z,6.49
2018-02-24T10:40:44.671Z,6.56
2018-02-24T10:41:44.399Z,6.51
2018-02-24T10:42:44.692Z,6.49
2018-02-24T10:43:44.725Z,6.48
2018-02-24T10:44:44.429Z,6.49
2018-02-24T10:45:44.726Z,6.51
2018-02-24T10:46:44.740Z,6.46
2018-02-24T10:47:44.465Z,6.54
2018-02-24T10:48:44.818Z,6.59
2018-02-24T10:49:44.775Z,6.54
2018-02-24T10:50:44.773Z,6.54
2018-02-24T10:51:44.503Z,6.52
2018-02-24T10:52:44.230Z,6.51
2018-02-24T10:53:44.527Z,6.56
2018-02-24T10:54:44.818Z,6.52
2018-02-24T10:55:44.827Z,6.54
2018-02-24T10:56:44.563Z,6.48
2018-02-24T10:57:44.850Z,6.52
2018-02-24T10:58:44.574Z,6.64
2018-02-24T10:59:44.591Z,6.49
2018-02-24T11:00:44.600Z,6.63
2018-02-24T11:01:44.609Z,6.62
2018-02-24T11:02:44.619Z,6.6
2018-02-24T11:03:44.960Z,6.62
2018-02-24T11:04:44.922Z,6.67
2018-02-24T11:05:44.656Z,6.67
2018-02-24T11:06:44.943Z,6.72
2018-02-24T11:07:44.959Z,6.77
2018-02-24T11:08:44.971Z,6.75
2018-02-24T11:09:44.973Z,6.75
2018-02-24T11:10:44.994Z,6.78
2018-02-24T11:11:45.009Z,6.87
2018-02-24T11:12:44.836Z,6.88
2018-02-24T11:13:45.071Z,6.93
2018-02-24T11:14:44.749Z,6.85
2018-02-24T11:15:45.043Z,6.84
2018-02-24T11:16:44.770Z,6.93
2018-02-24T11:17:44.805Z,6.89
2018-02-24T11:18:44.791Z,6.93
2018-02-24T11:19:44.803Z,7.07
2018-02-24T11:20:45.099Z,7.13
2018-02-24T11:21:45.121Z,7.02
2018-02-24T11:22:45.114Z,7.1
2018-02-24T11:23:45.149Z,7.1
2018-02-24T11:24:44.852Z,7.17
2018-02-24T11:25:45.156Z,7.17
2018-02-24T11:26:45.158Z,7.13
2018-02-24T11:27:45.182Z,7.18
2018-02-24T11:28:45.231Z,7.24
2018-02-24T11:29:44.912Z,7.2
2018-02-24T11:30:45.222Z,7.25
2018-02-24T11:31:45.220Z,7.25
2018-02-24T11:32:45.226Z,7.39
2018-02-24T11:33:45.233Z,7.42
2018-02-24T11:34:45.246Z,7.43
2018-02-24T11:35:45.265Z,7.47
2018-02-24T11:36:45.264Z,7.42
2018-02-24T11:37:44.996Z,7.4
2018-02-24T11:38:45.006Z,7.38
2018-02-24T11:39:45.300Z,7.4
2018-02-24T11:40:45.031Z,7.4
2018-02-24T11:41:45.386Z,7.4
2018-02-24T11:42:45.055Z,7.43
2018-02-24T11:43:45.351Z,7.47
2018-02-24T11:44:45.357Z,7.51
2018-02-24T11:45:45.379Z,7.48
2018-02-24T11:46:45.095Z,7.47
2018-02-24T11:47:45.393Z,7.51
2018-02-24T11:48:45.119Z,7.5
2018-02-24T11:49:45.133Z,7.47
2018-02-24T11:50:45.429Z,7.45
2018-02-24T11:51:45.437Z,7.67
2018-02-24T11:52:45.174Z,7.66
2018-02-24T11:53:45.176Z,7.67
2018-02-24T11:54:45.187Z,7.69
2018-02-24T11:55:45.398Z,7.69
2018-02-24T11:56:44.925Z,7.72
2018-02-24T11:57:45.220Z,7.75
2018-02-24T11:58:45.239Z,7.72
2018-02-24T11:59:45.525Z,7.73
2018-02-24T12:00:45.592Z,7.8
2018-02-24T12:01:45.266Z,7.79
2018-02-24T12:02:45.566Z,7.79
2018-02-24T12:03:45.569Z,7.82
2018-02-24T12:04:45.584Z,7.8
2018-02-24T12:05:45.311Z,7.77
2018-02-24T12:06:45.325Z,7.87
2018-02-24T12:07:45.622Z,7.83
2018-02-24T12:08:45.631Z,7.93
2018-02-24T12:09:45.360Z,7.85
2018-02-24T12:10:45.651Z,7.94
2018-02-24T12:11:45.674Z,7.91
2018-02-24T12:12:45.389Z,7.85
2018-02-24T12:13:45.824Z,7.9
2018-02-24T12:14:45.699Z,7.93
2018-02-24T12:15:45.712Z,7.9
2018-02-24T12:16:45.721Z,7.77
2018-02-24T12:17:45.737Z,7.88
2018-02-24T12:18:45.756Z,7.9
2018-02-24T12:19:45.571Z,7.83
2018-02-24T12:20:45.769Z,7.82
2018-02-24T12:21:45.500Z,7.75
2018-02-24T12:22:45.792Z,7.83
2018-02-24T12:23:45.812Z,7.82
2018-02-24T12:24:45.529Z,7.79
2018-02-24T12:25:45.830Z,7.8
2018-02-24T12:26:45.837Z,7.76
2018-02-24T12:27:45.846Z,7.77
2018-02-24T12:28:45.576Z,7.76
2018-02-24T12:29:45.592Z,7.82
2018-02-24T12:30:46.026Z,7.93
2018-02-24T12:31:45.610Z,7.93
2018-02-24T12:32:45.626Z,7.93
2018-02-24T12:33:45.924Z,7.9
2018-02-24T12:34:45.982Z,8.01
2018-02-24T12:35:45.942Z,8.05
2018-02-24T12:36:45.670Z,8.08
2018-02-24T12:37:45.975Z,8.12
2018-02-24T12:38:45.978Z,8.01
2018-02-24T12:39:45.710Z,8.05
2018-02-24T12:40:45.723Z,8.08
2018-02-24T12:41:46.013Z,8.03
2018-02-24T12:42:46.027Z,7.95
2018-02-24T12:43:45.807Z,7.94
2018-02-24T12:44:45.770Z,7.95
2018-02-24T12:45:46.061Z,7.91
2018-02-24T12:46:46.283Z,7.98
2018-02-24T12:47:45.806Z,8.05
2018-02-24T12:48:45.814Z,7.98
2018-02-24T12:49:46.476Z,8
2018-02-24T12:50:46.121Z,8.06
2018-02-24T12:51:46.142Z,8.03
2018-02-24T12:52:45.863Z,7.94
2018-02-24T12:53:45.878Z,7.9
2018-02-24T12:54:46.227Z,7.88
2018-02-24T12:55:45.902Z,7.88
2018-02-24T12:56:45.916Z,7.93
2018-02-24T12:57:45.924Z,7.75
2018-02-24T12:58:45.933Z,7.79
2018-02-24T12:59:46.287Z,7.77
2018-02-24T13:00:46.253Z,7.79
2018-02-24T13:01:45.967Z,7.77
2018-02-24T13:02:45.981Z,7.76
2018-02-24T13:03:45.997Z,7.82
2018-02-24T13:04:46.008Z,7.76
2018-02-24T13:05:46.023Z,7.82
2018-02-24T13:06:46.025Z,7.83
2018-02-24T13:07:45.758Z,7.67
2018-02-24T13:08:46.110Z,7.72
2018-02-24T13:09:45.831Z,7.61
2018-02-24T13:10:46.118Z,7.66
2018-02-24T13:11:46.101Z,7.61
2018-02-24T13:12:46.096Z,7.63
2018-02-24T13:13:46.116Z,7.61
2018-02-24T13:14:46.413Z,7.6
2018-02-24T13:15:46.135Z,7.57
2018-02-24T13:16:46.149Z,7.61
2018-02-24T13:17:46.445Z,7.67
2018-02-24T13:18:46.177Z,7.69
2018-02-24T13:19:46.472Z,7.69
2018-02-24T13:20:46.197Z,7.69
2018-02-24T13:21:46.208Z,7.66